Time;durP1;ratioP1;P1;durP2;ratioP2;P2;SDS_P1;SDS_P2;PMS_P1;PMS_P2;Temp;Humidity;BMP_temperature;BMP_pressure;BME280_temperature;BME280_humidity;BME280_pressure;Samples;Min_cycle;Max_cycle;Signal;HPM_P1;HPM_P2
2022/05/09 00:02:21;;;;;;;66.15;50.47;;;20.00;57.80;;;;;;4938453;28;98505;-70
2022/05/09 00:04:47;;;;;;;65.43;50.28;;;20.00;57.80;;;;;;4946357;28;95620;-70
2022/05/09 00:07:12;;;;;;;66.78;50.38;;;20.00;58.00;;;;;;4937815;28;95584;-70
2022/05/09 00:09:38;;;;;;;66.55;50.40;;;20.00;57.90;;;;;;4940378;28;97898;-70
2022/05/09 00:12:04;;;;;;;66.22;50.90;;;20.00;58.00;;;;;;4936308;28;96436;-70
2022/05/09 00:14:30;;;;;;;65.57;50.63;;;20.00;58.00;;;;;;4942001;28;99968;-70
2022/05/09 00:16:55;;;;;;;65.22;50.33;;;19.90;57.80;;;;;;4939502;28;97158;-70
2022/05/09 00:19:21;;;;;;;65.65;50.45;;;20.00;57.90;;;;;;4926623;28;94557;-70
2022/05/09 00:21:49;;;;;;;66.43;50.63;;;19.90;58.00;;;;;;4933707;28;96167;-70
2022/05/09 00:24:17;;;;;;;66.93;50.67;;;19.90;57.90;;;;;;4939457;28;96335;-69
2022/05/09 00:26:44;;;;;;;65.72;50.55;;;19.90;58.10;;;;;;4938002;28;97487;-70
2022/05/09 00:29:12;;;;;;;66.75;50.63;;;19.90;58.00;;;;;;4939971;28;95927;-70
2022/05/09 00:31:39;;;;;;;64.68;50.33;;;19.90;58.00;;;;;;4956193;28;97063;-70
2022/05/09 00:34:05;;;;;;;65.30;50.88;;;19.90;58.20;;;;;;4946580;28;96902;-71
2022/05/09 00:36:31;;;;;;;65.20;50.35;;;19.90;57.90;;;;;;4941758;28;94780;-70
2022/05/09 00:38:59;;;;;;;67.07;50.97;;;19.90;57.90;;;;;;4942778;28;96353;-70
2022/05/09 00:41:34;;;;;;;65.28;50.40;;;19.90;58.50;;;;;;4944845;28;95416;-71
2022/05/09 00:44:01;;;;;;;64.63;50.15;;;19.90;58.10;;;;;;4945938;28;94344;-70
2022/05/09 00:46:30;;;;;;;64.97;50.08;;;19.80;58.20;;;;;;4950211;28;95950;-70
2022/05/09 00:49:04;;;;;;;65.32;50.63;;;19.80;58.10;;;;;;4939467;28;97413;-70
2022/05/09 00:51:31;;;;;;;66.40;50.72;;;19.80;58.00;;;;;;4940244;28;97214;-70
2022/05/09 00:54:02;;;;;;;65.97;50.58;;;19.80;58.10;;;;;;4950069;28;96300;-70
2022/05/09 00:56:43;;;;;;;65.77;50.57;;;19.80;58.00;;;;;;4940475;28;100112;-70
2022/05/09 00:59:14;;;;;;;65.10;50.28;;;19.80;58.20;;;;;;4937926;28;95262;-70
2022/05/09 01:01:41;;;;;;;67.00;50.50;;;19.80;58.10;;;;;;4948998;28;95314;-70
2022/05/09 01:04:13;;;;;;;67.82;50.58;;;19.80;58.30;;;;;;4949553;28;95616;-70
2022/05/09 01:06:40;;;;;;;64.50;50.15;;;19.80;58.30;;;;;;4936787;28;95549;-70
2022/05/09 01:09:07;;;;;;;66.80;51.35;;;19.70;58.20;;;;;;4950988;28;94387;-71
2022/05/09 01:11:34;;;;;;;67.22;50.83;;;19.80;58.40;;;;;;4936986;28;96177;-71
2022/05/09 01:14:27;;;;;;;64.53;50.50;;;19.80;58.20;;;;;;4943248;28;95603;-70
2022/05/09 01:16:52;;;;;;;64.85;50.38;;;19.70;58.40;;;;;;4934343;28;102346;-71
2022/05/09 01:19:31;;;;;;;67.53;50.60;;;19.70;58.30;;;;;;4932086;28;97072;-70
2022/05/09 01:21:59;;;;;;;66.85;51.17;;;19.70;58.30;;;;;;4945864;28;95977;-70
2022/05/09 01:24:26;;;;;;;65.38;50.65;;;19.70;58.40;;;;;;4949228;28;95964;-69
2022/05/09 01:26:53;;;;;;;66.03;50.92;;;19.70;58.20;;;;;;4944372;28;95398;-69
2022/05/09 01:29:53;;;;;;;65.32;50.33;;;19.70;58.30;;;;;;4953437;28;100305;-69
2022/05/09 01:32:25;;;;;;;65.18;50.42;;;19.60;58.40;;;;;;4942945;28;98185;-69
2022/05/09 01:34:57;;;;;;;65.18;50.33;;;19.60;58.30;;;;;;4952269;28;97287;-70
2022/05/09 01:37:24;;;;;;;65.03;50.63;;;19.70;58.30;;;;;;4941336;28;96815;-70
2022/05/09 01:39:49;;;;;;;65.88;50.95;;;19.60;58.20;;;;;;4940885;28;96271;-69
2022/05/09 01:42:15;;;;;;;65.07;50.83;;;19.60;58.40;;;;;;4947046;28;96447;-70
2022/05/09 01:44:41;;;;;;;65.45;50.55;;;19.60;58.30;;;;;;4948598;28;98202;-69
2022/05/09 01:49:50;;;;;;;67.25;50.80;;;19.60;58.40;;;;;;4931412;28;95191;-69
2022/05/09 01:52:17;;;;;;;66.35;50.85;;;19.60;58.50;;;;;;4950455;28;97371;-69
2022/05/09 01:54:43;;;;;;;67.25;51.20;;;19.60;58.30;;;;;;4944613;28;97886;-69
2022/05/09 01:57:11;;;;;;;64.40;50.78;;;19.60;58.50;;;;;;4948768;28;95107;-69
2022/05/09 01:59:38;;;;;;;65.28;50.88;;;19.60;58.50;;;;;;4949291;28;94398;-69
2022/05/09 02:02:09;;;;;;;67.18;51.17;;;19.50;58.50;;;;;;4944472;28;95886;-69
2022/05/09 02:04:38;;;;;;;65.88;51.38;;;19.50;58.50;;;;;;4940674;28;101728;-69
2022/05/09 02:07:05;;;;;;;66.82;51.15;;;19.50;58.50;;;;;;4947138;28;96305;-69
2022/05/09 02:09:31;;;;;;;64.78;50.42;;;19.50;59.10;;;;;;4938736;28;95339;-69
2022/05/09 02:11:56;;;;;;;66.47;51.17;;;19.50;58.60;;;;;;4947850;28;95596;-69
2022/05/09 02:14:22;;;;;;;65.68;50.97;;;19.50;58.50;;;;;;4949009;28;95978;-69
2022/05/09 02:16:47;;;;;;;66.20;50.55;;;19.50;58.50;;;;;;4942841;28;96497;-69
2022/05/09 02:19:13;;;;;;;67.80;51.17;;;19.50;58.50;;;;;;4935850;28;95050;-69
2022/05/09 02:21:38;;;;;;;65.47;50.83;;;19.40;58.60;;;;;;4943057;28;95213;-68
2022/05/09 02:24:04;;;;;;;66.35;51.15;;;19.40;58.60;;;;;;4942200;28;99601;-69
2022/05/09 02:26:31;;;;;;;65.85;50.75;;;19.40;58.60;;;;;;4943865;28;96663;-69
2022/05/09 02:28:57;;;;;;;64.20;50.42;;;19.40;58.50;;;;;;4946809;28;95378;-70
2022/05/09 02:31:23;;;;;;;65.85;50.97;;;19.40;58.70;;;;;;4937061;28;97594;-69
2022/05/09 02:33:49;;;;;;;65.88;51.05;;;19.40;58.70;;;;;;4939790;28;98725;-69
2022/05/09 02:36:15;;;;;;;65.72;50.95;;;19.40;58.60;;;;;;4944228;28;95341;-69
2022/05/09 02:38:41;;;;;;;66.05;50.80;;;19.40;58.70;;;;;;4948094;28;94902;-69
2022/05/09 02:41:06;;;;;;;64.70;50.85;;;19.40;58.80;;;;;;4935430;28;95152;-69
2022/05/09 02:43:34;;;;;;;67.57;51.03;;;19.30;58.60;;;;;;4949588;28;95498;-68
2022/05/09 02:46:03;;;;;;;64.40;50.40;;;19.40;58.60;;;;;;4942376;28;96093;-69
2022/05/09 02:48:33;;;;;;;65.85;51.42;;;19.30;58.70;;;;;;4942134;28;94474;-70
2022/05/09 02:50:59;;;;;;;65.47;50.97;;;19.30;58.70;;;;;;4935588;28;101777;-68
2022/05/09 02:53:24;;;;;;;65.85;51.15;;;19.30;58.60;;;;;;4947160;28;101807;-69
2022/05/09 02:55:50;;;;;;;64.80;51.22;;;19.20;58.60;;;;;;4943164;28;97332;-70
2022/05/09 02:58:16;;;;;;;65.90;51.25;;;19.20;58.80;;;;;;4947913;28;95439;-69
2022/05/09 03:00:41;;;;;;;65.25;50.95;;;19.20;58.90;;;;;;4936889;28;96388;-69
2022/05/09 03:05:51;;;;;;;65.30;50.65;;;19.20;58.80;;;;;;4944465;28;97204;-69
2022/05/09 03:08:18;;;;;;;64.07;50.55;;;19.20;58.80;;;;;;4951493;28;95061;-70
2022/05/09 03:10:44;;;;;;;65.88;50.83;;;19.20;58.80;;;;;;4935532;28;95479;-69
2022/05/09 03:13:15;;;;;;;64.82;50.55;;;19.20;58.70;;;;;;4941285;28;95471;-69
2022/05/09 03:15:43;;;;;;;63.70;50.63;;;19.20;58.80;;;;;;4944709;28;95634;-69
2022/05/09 03:18:10;;;;;;;64.65;51.28;;;19.20;58.80;;;;;;4946727;28;95350;-69
2022/05/09 03:20:36;;;;;;;65.40;51.03;;;19.20;58.70;;;;;;4929184;28;96604;-69
2022/05/09 03:23:04;;;;;;;65.60;50.88;;;19.20;58.90;;;;;;4943519;28;97032;-69
2022/05/09 03:25:31;;;;;;;64.95;50.97;;;19.20;58.90;;;;;;4939232;28;96759;-70
2022/05/09 03:27:57;;;;;;;63.80;50.50;;;19.10;58.80;;;;;;4948976;28;95441;-70
2022/05/09 03:30:22;;;;;;;65.15;51.13;;;19.10;58.90;;;;;;4950596;28;95290;-70
2022/05/09 03:32:48;;;;;;;65.45;51.25;;;19.10;58.80;;;;;;4946671;28;95257;-70
2022/05/09 03:35:17;;;;;;;64.32;50.92;;;19.10;58.70;;;;;;4944048;28;96833;-70
2022/05/09 03:37:43;;;;;;;65.18;51.00;;;19.10;58.80;;;;;;4941008;28;94454;-70
2022/05/09 03:40:09;;;;;;;65.93;50.97;;;19.10;58.80;;;;;;4932294;28;96045;-70
2022/05/09 03:42:35;;;;;;;64.07;50.58;;;19.10;58.90;;;;;;4945165;28;96761;-70
2022/05/09 03:45:00;;;;;;;66.07;51.05;;;19.10;58.90;;;;;;4945946;28;99256;-70
2022/05/09 03:47:26;;;;;;;64.55;50.42;;;19.10;58.90;;;;;;4947367;28;95650;-70
2022/05/09 03:49:54;;;;;;;63.92;50.05;;;19.10;58.90;;;;;;4929750;28;95237;-69
2022/05/09 03:52:20;;;;;;;63.45;50.63;;;19.10;58.80;;;;;;4942283;28;95229;-70
2022/05/09 03:54:46;;;;;;;65.93;50.97;;;19.10;58.90;;;;;;4940882;28;95345;-67
2022/05/09 03:57:11;;;;;;;65.00;50.20;;;19.10;58.90;;;;;;4940469;28;100859;-69
2022/05/09 03:59:37;;;;;;;63.35;50.20;;;19.00;59.30;;;;;;4940615;28;96753;-69
2022/05/09 04:02:03;;;;;;;66.25;51.15;;;19.10;58.90;;;;;;4932829;28;94962;-69
2022/05/09 04:04:37;;;;;;;65.53;51.50;;;19.00;58.80;;;;;;4958806;28;82532;-53
2022/05/09 04:07:03;;;;;;;65.68;50.28;;;19.00;58.60;;;;;;4947104;28;85820;-55
2022/05/09 04:09:28;;;;;;;66.35;51.50;;;19.00;58.90;;;;;;4959878;28;85417;-54
2022/05/09 04:11:54;;;;;;;67.53;50.83;;;19.00;58.90;;;;;;4956512;28;87869;-56
2022/05/09 04:16:49;;;;;;;63.83;50.55;;;19.00;58.90;;;;;;4956511;28;86132;-56
2022/05/09 04:17:06;;;;;;;65.63;50.50;;;19.00;58.90;;;;;;4949564;28;86603;-55
2022/05/09 04:19:31;;;;;;;63.97;50.72;;;19.00;59.00;;;;;;4946260;28;86071;-50
2022/05/09 04:21:57;;;;;;;64.03;50.65;;;18.90;58.90;;;;;;4944862;28;85900;-56
2022/05/09 04:24:23;;;;;;;65.40;50.85;;;19.00;59.10;;;;;;4959987;28;85725;-52
2022/05/09 04:26:49;;;;;;;67.45;50.83;;;19.00;59.10;;;;;;4956656;28;88543;-53
2022/05/09 04:29:14;;;;;;;64.65;50.05;;;18.90;59.10;;;;;;4960984;28;85323;-54
2022/05/09 04:31:40;;;;;;;64.28;50.28;;;18.90;58.90;;;;;;4961629;28;86143;-52
2022/05/09 04:34:06;;;;;;;65.28;50.95;;;18.90;58.90;;;;;;4959666;28;85485;-51
2022/05/09 04:36:32;;;;;;;64.05;50.42;;;18.90;59.10;;;;;;4957487;28;87401;-53
2022/05/09 04:38:58;;;;;;;63.97;50.55;;;18.90;59.00;;;;;;4968465;28;87260;-53
2022/05/09 04:41:25;;;;;;;62.38;49.83;;;18.90;59.00;;;;;;4958579;28;87485;-55
2022/05/09 04:43:51;;;;;;;64.03;50.05;;;18.90;59.00;;;;;;4967300;28;85857;-50
2022/05/09 04:46:17;;;;;;;64.93;50.88;;;18.90;59.00;;;;;;4960734;28;87311;-54
2022/05/09 04:48:44;;;;;;;66.05;50.50;;;18.90;58.90;;;;;;4963259;28;85627;-51
2022/05/09 04:51:10;;;;;;;65.18;50.83;;;18.90;59.00;;;;;;4954409;28;88048;-53
2022/05/09 04:53:37;;;;;;;63.45;50.05;;;18.90;59.00;;;;;;4959983;28;85089;-55
2022/05/09 04:56:05;;;;;;;65.10;50.60;;;18.80;59.00;;;;;;4962612;28;85158;-56
2022/05/09 04:58:31;;;;;;;66.30;50.88;;;18.90;59.00;;;;;;4966043;28;85410;-51
2022/05/09 05:00:57;;;;;;;64.63;50.78;;;18.90;59.00;;;;;;4958847;28;85738;-51
2022/05/09 05:03:23;;;;;;;64.07;50.10;;;18.90;59.00;;;;;;4952875;28;87912;-54
2022/05/09 05:05:51;;;;;;;64.00;50.42;;;18.90;59.00;;;;;;4959586;28;85504;-53
2022/05/09 05:08:17;;;;;;;64.80;50.92;;;18.80;58.80;;;;;;4955822;28;85969;-51
2022/05/09 05:10:42;;;;;;;65.85;50.40;;;18.90;58.90;;;;;;4955927;28;86519;-49
2022/05/09 05:13:09;;;;;;;64.28;50.70;;;18.80;58.90;;;;;;4959655;28;86681;-54
2022/05/09 05:15:34;;;;;;;63.83;50.38;;;18.90;58.90;;;;;;4945115;28;85846;-47
2022/05/09 05:18:00;;;;;;;62.83;49.90;;;18.80;58.90;;;;;;4941824;28;86214;-53
2022/05/09 05:20:27;;;;;;;64.10;50.55;;;18.80;59.00;;;;;;4942176;28;85315;-51
2022/05/09 05:22:53;;;;;;;63.83;50.40;;;18.80;59.00;;;;;;4944134;28;86843;-51
2022/05/09 05:25:22;;;;;;;67.20;50.72;;;18.80;58.90;;;;;;4940290;28;90226;-54
2022/05/09 05:27:48;;;;;;;64.85;50.55;;;18.80;58.90;;;;;;4944015;28;87762;-55
2022/05/09 05:30:14;;;;;;;63.95;50.58;;;18.80;58.90;;;;;;4948546;28;85139;-55
2022/05/09 05:32:41;;;;;;;64.25;50.78;;;18.80;58.90;;;;;;4946667;28;85376;-52
2022/05/09 05:35:11;;;;;;;64.40;50.97;;;18.80;58.90;;;;;;4950738;28;86227;-53
2022/05/09 05:37:36;;;;;;;64.05;50.80;;;18.80;58.90;;;;;;4950418;28;85032;-55
2022/05/09 05:40:04;;;;;;;65.53;50.55;;;18.80;58.80;;;;;;4948895;28;86617;-53
2022/05/09 05:42:30;;;;;;;64.88;50.63;;;18.80;58.70;;;;;;4940861;28;90676;-52
2022/05/09 05:44:56;;;;;;;63.88;50.53;;;18.80;58.90;;;;;;4932716;28;88875;-51
2022/05/09 05:47:23;;;;;;;64.18;51.05;;;18.80;58.60;;;;;;4940129;28;85199;-56
2022/05/09 05:49:49;;;;;;;64.72;50.50;;;18.90;58.90;;;;;;4942442;28;86659;-51
2022/05/09 05:52:16;;;;;;;65.88;50.45;;;18.90;58.80;;;;;;4941285;28;89339;-53
2022/05/09 05:54:44;;;;;;;65.05;51.08;;;18.80;58.80;;;;;;4942012;28;88283;-55
2022/05/09 05:57:25;;;;;;;64.78;50.53;;;18.90;58.70;;;;;;4943586;28;86531;-53
2022/05/09 05:59:53;;;;;;;64.45;50.53;;;18.90;58.70;;;;;;4952144;28;85715;-55
2022/05/09 06:02:19;;;;;;;66.22;50.72;;;18.80;58.60;;;;;;4940168;28;85603;-55
2022/05/09 06:04:45;;;;;;;66.78;50.75;;;18.80;58.80;;;;;;4942881;28;85670;-55
2022/05/09 06:07:12;;;;;;;65.65;51.03;;;18.90;58.60;;;;;;4946274;28;86552;-54
2022/05/09 06:09:39;;;;;;;69.40;51.25;;;18.90;58.30;;;;;;4950455;28;85575;-54
2022/05/09 06:12:05;;;;;;;65.32;50.33;;;18.90;58.60;;;;;;4943456;28;86755;-53
2022/05/09 06:14:31;;;;;;;63.88;49.90;;;18.90;58.70;;;;;;4943512;28;92090;-56
2022/05/09 06:16:57;;;;;;;65.35;50.53;;;18.90;58.70;;;;;;4944154;28;85139;-52
2022/05/09 06:19:23;;;;;;;66.00;51.05;;;18.90;58.70;;;;;;4942280;28;85768;-53
2022/05/09 06:21:50;;;;;;;68.90;51.38;;;18.90;58.70;;;;;;4940163;28;87885;-52
2022/05/09 06:24:16;;;;;;;69.50;51.85;;;19.00;59.00;;;;;;4933543;28;86510;-53
2022/05/09 06:26:44;;;;;;;71.82;51.60;;;19.00;59.30;;;;;;4951830;28;85154;-50
2022/05/09 06:29:10;;;;;;;67.95;51.55;;;19.00;59.40;;;;;;4942896;28;85756;-53
2022/05/09 06:31:37;;;;;;;67.78;51.63;;;19.00;59.50;;;;;;4950359;28;85761;-54
2022/05/09 06:34:04;;;;;;;71.88;51.85;;;19.00;59.70;;;;;;4938888;28;88548;-54
2022/05/09 06:36:34;;;;;;;68.05;52.15;;;19.00;59.60;;;;;;4937127;28;85992;-51
2022/05/09 06:39:00;;;;;;;79.40;51.97;;;19.10;59.60;;;;;;4949324;28;85384;-49
2022/05/09 06:41:26;;;;;;;75.43;51.83;;;19.10;59.70;;;;;;4946983;28;86077;-49
2022/05/09 06:43:53;;;;;;;74.38;51.75;;;19.10;59.70;;;;;;4938077;28;88747;-51
2022/05/09 06:46:19;;;;;;;81.30;52.25;;;19.10;59.60;;;;;;4935528;28;85394;-46
2022/05/09 06:48:45;;;;;;;72.68;51.95;;;19.10;59.60;;;;;;4946710;28;86623;-51
2022/05/09 06:51:11;;;;;;;70.30;51.78;;;19.10;59.70;;;;;;4943032;28;85604;-47
2022/05/09 06:53:36;;;;;;;68.15;51.75;;;19.10;59.60;;;;;;4948098;28;85840;-47
2022/05/09 06:56:04;;;;;;;69.85;51.72;;;19.10;59.50;;;;;;4946236;28;85757;-50
2022/05/09 06:58:29;;;;;;;70.57;51.92;;;19.10;59.50;;;;;;4946244;28;85388;-45
2022/05/09 07:00:56;;;;;;;69.57;51.20;;;19.20;59.40;;;;;;4946685;28;88178;-46
2022/05/09 07:03:22;;;;;;;67.30;51.33;;;19.20;59.40;;;;;;4940320;28;85414;-47
2022/05/09 07:05:49;;;;;;;69.82;51.15;;;19.20;59.20;;;;;;4940570;28;85381;-47
2022/05/09 07:08:15;;;;;;;69.70;51.38;;;19.20;59.30;;;;;;4943412;28;85476;-49
2022/05/09 07:10:42;;;;;;;70.45;51.45;;;19.20;59.20;;;;;;4947963;28;86728;-51
2022/05/09 07:13:07;;;;;;;69.50;51.60;;;19.20;59.20;;;;;;4941022;28;87478;-47
2022/05/09 07:15:34;;;;;;;68.97;51.53;;;19.20;59.10;;;;;;4944591;28;87052;-45
2022/05/09 07:18:00;;;;;;;71.50;51.55;;;19.20;59.10;;;;;;4948557;28;86088;-46
2022/05/09 07:20:28;;;;;;;69.43;51.85;;;19.20;59.10;;;;;;4942880;28;86339;-47
2022/05/09 07:22:57;;;;;;;71.05;51.40;;;19.20;59.00;;;;;;4943135;28;85521;-45
2022/05/09 07:25:24;;;;;;;70.47;51.60;;;19.30;59.10;;;;;;4950696;28;85553;-47
2022/05/09 07:27:50;;;;;;;70.78;51.60;;;19.30;59.10;;;;;;4949498;28;88104;-49
2022/05/09 07:30:19;;;;;;;68.93;51.30;;;19.30;59.00;;;;;;4946885;28;85314;-46
2022/05/09 07:32:46;;;;;;;67.65;51.58;;;19.40;59.20;;;;;;4947770;28;86115;-50
2022/05/09 07:35:14;;;;;;;69.55;51.42;;;19.40;59.10;;;;;;4949739;28;86395;-46
2022/05/09 07:37:40;;;;;;;70.28;51.55;;;19.40;59.00;;;;;;4951725;28;88778;-45
2022/05/09 07:40:12;;;;;;;69.05;51.28;;;19.40;59.10;;;;;;4937081;28;91702;-45
2022/05/09 07:42:41;;;;;;;72.68;51.28;;;19.40;59.10;;;;;;4948866;28;87845;-51
2022/05/09 07:45:07;;;;;;;69.63;51.33;;;19.40;59.00;;;;;;4948652;28;85395;-46
2022/05/09 07:47:33;;;;;;;68.20;51.40;;;19.40;59.10;;;;;;4950205;28;87363;-51
2022/05/09 07:49:59;;;;;;;69.20;51.40;;;19.50;59.10;;;;;;4942893;28;85388;-45
2022/05/09 07:52:26;;;;;;;68.55;51.38;;;19.50;59.00;;;;;;4939832;28;87656;-47
2022/05/09 07:54:51;;;;;;;68.63;51.38;;;19.50;59.00;;;;;;4942850;28;85781;-46
2022/05/09 07:57:17;;;;;;;68.85;51.72;;;19.50;59.10;;;;;;4952830;28;85614;-45
2022/05/09 07:59:43;;;;;;;69.97;51.35;;;19.50;59.00;;;;;;4938235;28;85533;-51
2022/05/09 08:02:09;;;;;;;68.53;51.38;;;19.60;59.10;;;;;;4947772;28;85527;-49
2022/05/09 08:04:35;;;;;;;70.75;51.50;;;19.60;59.00;;;;;;4945404;28;90257;-47
2022/05/09 08:07:02;;;;;;;67.47;51.22;;;19.60;59.00;;;;;;4943709;28;86326;-50
2022/05/09 08:09:28;;;;;;;70.20;51.33;;;19.60;59.00;;;;;;4944145;28;88401;-47
2022/05/09 08:11:54;;;;;;;69.13;51.45;;;19.60;59.50;;;;;;4956327;28;85297;-46
2022/05/09 08:14:21;;;;;;;68.30;51.35;;;19.70;59.00;;;;;;4946854;28;86032;-50
2022/05/09 08:16:47;;;;;;;69.03;50.88;;;19.60;59.00;;;;;;4946905;28;87362;-48
2022/05/09 08:19:14;;;;;;;67.80;51.30;;;19.70;58.90;;;;;;4946582;28;89148;-46
2022/05/09 08:21:40;;;;;;;69.78;51.85;;;19.70;59.00;;;;;;4937773;28;90776;-47
2022/05/09 08:24:08;;;;;;;68.93;51.47;;;19.70;58.90;;;;;;4944872;28;85472;-48
2022/05/09 08:26:34;;;;;;;69.30;51.45;;;19.70;58.90;;;;;;4943970;28;86216;-48
2022/05/09 08:29:00;;;;;;;68.75;51.38;;;19.80;59.00;;;;;;4944017;28;88287;-50
2022/05/09 08:31:26;;;;;;;70.95;51.45;;;19.80;59.00;;;;;;4946633;28;86945;-46
2022/05/09 08:33:53;;;;;;;68.18;51.63;;;19.80;59.00;;;;;;4942881;28;85500;-47
2022/05/09 08:39:07;;;;;;;69.57;51.60;;;19.80;59.00;;;;;;4947191;28;86748;-46
2022/05/09 08:41:53;;;;;;;69.90;51.42;;;19.80;59.00;;;;;;4946139;28;85852;-46
2022/05/09 08:44:57;;;;;;;68.95;51.35;;;19.90;59.00;;;;;;4944829;28;85640;-50
2022/05/09 08:47:44;;;;;;;71.20;51.63;;;19.90;59.00;;;;;;4950066;28;85389;-47
2022/05/09 08:50:30;;;;;;;67.57;51.55;;;19.90;59.00;;;;;;4948999;28;86691;-51
2022/05/09 08:52:59;;;;;;;69.28;51.58;;;19.90;58.90;;;;;;4940417;28;86410;-48
2022/05/09 08:55:33;;;;;;;68.10;51.42;;;19.90;59.00;;;;;;4945583;28;88739;-48
2022/05/09 08:58:20;;;;;;;69.72;52.00;;;19.90;59.00;;;;;;4951185;28;91201;-50
2022/05/09 09:00:49;;;;;;;69.28;51.35;;;20.00;59.00;;;;;;4942951;28;85426;-47
2022/05/09 09:03:44;;;;;;;68.68;51.45;;;20.00;58.90;;;;;;4950500;28;86376;-49
2022/05/09 09:06:19;;;;;;;69.55;51.55;;;20.00;58.90;;;;;;4948645;28;85528;-49
2022/05/09 09:09:03;;;;;;;70.13;51.30;;;20.10;58.90;;;;;;4955128;28;85891;-50
2022/05/09 09:12:02;;;;;;;69.53;51.65;;;20.10;58.80;;;;;;4942720;28;86580;-52
2022/05/09 09:14:46;;;;;;;68.63;51.33;;;20.00;58.80;;;;;;4948963;28;85670;-45
2022/05/09 09:17:24;;;;;;;68.40;51.83;;;20.10;58.80;;;;;;4953011;28;86454;-47
2022/05/09 09:19:56;;;;;;;68.88;51.50;;;20.10;58.80;;;;;;4944400;28;88360;-48
2022/05/09 09:22:46;;;;;;;68.30;51.40;;;20.10;58.80;;;;;;4945619;28;86101;-50
2022/05/09 09:25:31;;;;;;;68.47;51.83;;;20.10;58.70;;;;;;4933427;28;86321;-47
2022/05/09 09:28:33;;;;;;;68.25;51.75;;;20.20;58.70;;;;;;4947212;28;85208;-48
2022/05/09 09:31:10;;;;;;;68.20;51.42;;;20.20;58.80;;;;;;4948049;28;85178;-52
2022/05/09 09:33:42;;;;;;;69.32;51.42;;;20.20;58.80;;;;;;4950291;28;85472;-48
2022/05/09 09:36:14;;;;;;;69.07;51.80;;;20.20;58.70;;;;;;4938423;28;88019;-48
2022/05/09 09:39:07;;;;;;;68.95;51.78;;;20.20;58.70;;;;;;4945445;28;86042;-50
2022/05/09 09:41:35;;;;;;;68.18;51.42;;;20.30;58.60;;;;;;4945969;28;89479;-51
2022/05/09 09:44:13;;;;;;;69.43;51.88;;;20.30;58.70;;;;;;4943724;28;86713;-50
2022/05/09 09:47:00;;;;;;;69.15;51.72;;;20.30;58.60;;;;;;4942516;28;85565;-49
2022/05/09 09:49:26;;;;;;;69.45;51.65;;;20.30;58.50;;;;;;4948990;28;85480;-51
2022/05/09 09:51:51;;;;;;;70.30;52.10;;;20.30;58.50;;;;;;4937226;28;88435;-47
2022/05/09 09:54:21;;;;;;;68.82;51.72;;;20.40;58.50;;;;;;4942223;28;88481;-46
2022/05/09 09:56:47;;;;;;;75.07;52.08;;;20.30;58.70;;;;;;4952483;28;87313;-46
2022/05/09 09:59:21;;;;;;;68.88;51.83;;;20.30;58.50;;;;;;4953497;28;86508;-45
2022/05/09 10:02:16;;;;;;;69.95;51.65;;;20.30;58.40;;;;;;4938008;28;87409;-48
2022/05/09 10:04:43;;;;;;;68.78;51.85;;;20.40;58.40;;;;;;4944473;28;87937;-47
2022/05/09 10:07:13;;;;;;;71.30;51.97;;;20.40;58.30;;;;;;4946164;28;85803;-51
2022/05/09 10:09:41;;;;;;;75.87;53.87;;;20.40;58.20;;;;;;4939116;28;88182;-47
2022/05/09 10:12:22;;;;;;;77.50;56.03;;;20.40;58.20;;;;;;4940583;28;85080;-48
2022/05/09 10:14:49;;;;;;;86.50;58.67;;;20.40;58.20;;;;;;4937196;28;86911;-46
2022/05/09 10:17:19;;;;;;;92.85;61.72;;;20.50;58.30;;;;;;4935386;28;88692;-48
2022/05/09 10:19:46;;;;;;;94.18;62.50;;;20.50;58.30;;;;;;4953102;28;88226;-47
2022/05/09 10:25:22;;;;;;;90.30;62.88;;;20.50;58.80;;;;;;4936988;28;87572;-46
2022/05/09 10:28:16;;;;;;;88.28;62.20;;;20.50;58.20;;;;;;4945569;28;85591;-48
2022/05/09 10:30:48;;;;;;;86.03;60.38;;;20.50;58.20;;;;;;4944099;28;86105;-47
2022/05/09 10:33:43;;;;;;;86.47;61.03;;;20.50;58.20;;;;;;4938919;28;88841;-48
2022/05/09 10:36:21;;;;;;;80.55;58.70;;;20.50;58.20;;;;;;4936751;28;87903;-48
2022/05/09 10:39:09;;;;;;;82.43;58.45;;;20.60;58.20;;;;;;4943178;28;85773;-49
2022/05/09 10:41:51;;;;;;;83.78;59.42;;;20.50;58.10;;;;;;4939172;28;86162;-48
2022/05/09 10:44:35;;;;;;;78.82;57.08;;;20.60;58.10;;;;;;4941997;28;85722;-50
2022/05/09 10:47:08;;;;;;;78.70;56.00;;;20.60;58.10;;;;;;4946577;28;87612;-51
2022/05/09 10:49:54;;;;;;;79.07;57.28;;;20.60;58.10;;;;;;4948177;28;89770;-48
2022/05/09 10:53:09;;;;;;;84.72;57.42;;;20.60;58.10;;;;;;4941303;28;87092;-49
2022/05/09 10:55:39;;;;;;;79.80;56.83;;;20.60;58.00;;;;;;4938175;28;86400;-51
2022/05/09 10:58:09;;;;;;;76.03;55.50;;;20.60;58.00;;;;;;4938145;28;85696;-50
2022/05/09 11:00:41;;;;;;;76.13;54.28;;;20.60;58.00;;;;;;4948245;28;85795;-49
2022/05/09 11:03:26;;;;;;;84.93;56.53;;;20.70;57.90;;;;;;4940498;28;86789;-51
2022/05/09 11:06:19;;;;;;;78.10;56.25;;;20.70;57.90;;;;;;4950842;28;85557;-47
2022/05/09 11:08:57;;;;;;;78.20;54.95;;;20.70;57.90;;;;;;4949919;28;85930;-46
2022/05/09 11:11:54;;;;;;;77.78;55.45;;;20.70;57.80;;;;;;4937283;28;85360;-46
2022/05/09 11:15:14;;;;;;;76.22;54.75;;;20.70;57.80;;;;;;4945951;28;88048;-49
2022/05/09 11:17:48;;;;;;;76.55;55.35;;;20.70;57.80;;;;;;4940096;28;86980;-48
2022/05/09 11:20:28;;;;;;;79.35;54.72;;;20.70;57.70;;;;;;4949197;28;86527;-50
2022/05/09 11:23:15;;;;;;;77.53;55.17;;;20.70;57.70;;;;;;4931894;28;88192;-48
2022/05/09 11:26:07;;;;;;;73.95;54.50;;;20.70;57.70;;;;;;4939504;28;86113;-49
2022/05/09 11:28:58;;;;;;;75.40;54.28;;;20.70;57.70;;;;;;4942341;28;87032;-49
2022/05/09 11:31:42;;;;;;;74.53;54.35;;;20.80;57.70;;;;;;4946321;28;87848;-48
2022/05/09 11:34:35;;;;;;;74.50;54.20;;;20.80;57.70;;;;;;4949986;28;89608;-48
2022/05/09 11:37:38;;;;;;;73.93;54.33;;;20.80;57.60;;;;;;4938532;28;87157;-46
2022/05/09 11:40:19;;;;;;;75.03;54.55;;;20.80;57.60;;;;;;4942587;28;86356;-48
2022/05/09 11:46:04;;;;;;;72.72;53.65;;;20.80;57.60;;;;;;4949464;28;85550;-47
2022/05/09 11:48:48;;;;;;;74.30;54.05;;;20.80;57.50;;;;;;4944275;28;85493;-50
2022/05/09 11:51:49;;;;;;;73.85;53.70;;;20.80;57.50;;;;;;4944331;28;85661;-48
2022/05/09 11:54:30;;;;;;;;;;;20.90;57.50;;;;;;4936238;28;86682;-47
2022/05/09 11:57:00;;;;;;;72.95;53.53;;;20.90;57.50;;;;;;4952156;28;86297;-46
2022/05/09 11:59:30;;;;;;;73.03;53.63;;;20.90;57.50;;;;;;4951255;28;85351;-47
2022/05/09 12:01:57;;;;;;;74.43;53.58;;;20.90;57.50;;;;;;4940151;28;85713;-45
2022/05/09 12:04:43;;;;;;;74.60;53.78;;;20.90;57.50;;;;;;4946842;28;85550;-49
2022/05/09 12:07:21;;;;;;;74.32;53.83;;;20.90;57.40;;;;;;4940209;28;88065;-44
2022/05/09 12:10:11;;;;;;;74.00;53.70;;;20.90;57.40;;;;;;4932268;28;88195;-47
2022/05/09 12:12:37;;;;;;;71.90;53.45;;;20.90;57.40;;;;;;4948282;28;85485;-48
2022/05/09 12:15:27;;;;;;;74.10;53.83;;;20.90;57.30;;;;;;4944859;28;88328;-48
2022/05/09 12:17:58;;;;;;;73.82;53.60;;;21.00;57.40;;;;;;4939376;28;85560;-48
2022/05/09 12:20:26;;;;;;;73.03;53.75;;;21.00;57.40;;;;;;4943380;28;86604;-47
2022/05/09 12:22:53;;;;;;;72.50;53.47;;;21.00;57.40;;;;;;4930434;28;85739;-46
2022/05/09 12:25:34;;;;;;;74.25;53.63;;;21.00;57.40;;;;;;4934716;28;86853;-49
2022/05/09 12:28:18;;;;;;;73.13;53.30;;;21.00;57.30;;;;;;4949990;28;88061;-46
2022/05/09 12:30:43;;;;;;;72.22;53.05;;;21.10;57.40;;;;;;4954352;28;87887;-48
2022/05/09 12:33:25;;;;;;;73.95;53.45;;;21.00;57.30;;;;;;4950210;28;88353;-49
2022/05/09 12:35:54;;;;;;;72.68;53.45;;;21.10;57.30;;;;;;4948230;28;85642;-47
2022/05/09 12:38:33;;;;;;;74.60;53.83;;;21.10;57.30;;;;;;4951161;28;86096;-49
2022/05/09 12:41:20;;;;;;;71.50;53.38;;;21.10;57.30;;;;;;4949075;28;86047;-48
2022/05/09 12:43:50;;;;;;;71.40;53.05;;;21.10;57.30;;;;;;4953063;28;85720;-47
2022/05/09 12:46:27;;;;;;;72.57;53.30;;;21.10;57.20;;;;;;4953160;28;89079;-50
2022/05/09 12:48:56;;;;;;;71.57;53.30;;;21.10;57.20;;;;;;4950037;28;85654;-47
2022/05/09 12:51:22;;;;;;;72.68;53.75;;;21.10;57.20;;;;;;4951203;28;88179;-48
2022/05/09 12:53:50;;;;;;;70.95;53.22;;;21.10;57.80;;;;;;4942796;28;85473;-46
2022/05/09 12:56:22;;;;;;;73.32;53.40;;;21.10;57.20;;;;;;4953651;28;85536;-50
2022/05/09 12:59:07;;;;;;;73.13;53.40;;;21.10;57.20;;;;;;4950647;28;88783;-46
2022/05/09 13:01:33;;;;;;;73.35;53.42;;;21.20;57.90;;;;;;4943326;28;85191;-49
2022/05/09 13:04:07;;;;;;;75.05;53.55;;;21.20;57.20;;;;;;4945378;28;88499;-49